Time;durP1;ratioP1;P1;durP2;ratioP2;P2;SDS_P1;SDS_P2;PMS_P1;PMS_P2;Temp;Humidity;BMP_temperature;BMP_pressure;BME280_temperature;BME280_humidity;BME280_pressure;Samples;Min_cycle;Max_cycle;Signal;HPM_P1;HPM_P2
2021/06/04 00:00:19;;;;;;;26.13;24.53;;;;;;;;;;5012948;28;20857;-63
2021/06/04 00:02:46;;;;;;;27.73;25.87;;;;;;;;;;5018515;28;20447;-62
2021/06/04 00:05:13;;;;;;;28.70;26.90;;;;;;;;;;5018318;28;20507;-63
2021/06/04 00:07:40;;;;;;;26.47;24.77;;;;;;;;;;5013756;28;20469;-62
2021/06/04 00:10:08;;;;;;;28.80;27.00;;;;;;;;;;5019899;28;20445;-63
2021/06/04 00:12:34;;;;;;;27.67;25.87;;;;;;;;;;4993293;28;20542;-63
2021/06/04 00:15:01;;;;;;;28.77;26.97;;;;;;;;;;5008453;28;20463;-63
2021/06/04 00:17:29;;;;;;;28.03;26.30;;;;;;;;;;5034749;28;20473;-63
2021/06/04 00:19:55;;;;;;;28.23;26.30;;;;;;;;;;5026110;28;20485;-63
2021/06/04 00:22:24;;;;;;;27.50;25.73;;;;;;;;;;5019791;28;20460;-63
2021/06/04 00:24:52;;;;;;;27.67;25.87;;;;;;;;;;5015831;28;20453;-63
2021/06/04 00:27:19;;;;;;;28.53;26.63;;;;;;;;;;5015104;28;21189;-64
2021/06/04 00:29:46;;;;;;;29.60;27.70;;;;;;;;;;5035548;28;20448;-65
2021/06/04 00:32:13;;;;;;;29.23;27.33;;;;;;;;;;5017051;28;20454;-63
2021/06/04 00:34:41;;;;;;;29.53;27.70;;;;;;;;;;5028013;28;20452;-62
2021/06/04 00:37:08;;;;;;;30.20;28.30;;;;;;;;;;5018810;28;20469;-62
2021/06/04 00:39:36;;;;;;;31.07;29.17;;;;;;;;;;5023201;28;20476;-64
2021/06/04 00:42:05;;;;;;;31.80;29.73;;;;;;;;;;5020879;28;20454;-63
2021/06/04 00:44:33;;;;;;;31.00;29.00;;;;;;;;;;5021557;28;20452;-63
2021/06/04 00:47:00;;;;;;;30.83;28.83;;;;;;;;;;5017417;28;20584;-63
2021/06/04 00:49:26;;;;;;;30.37;28.37;;;;;;;;;;5021084;28;20449;-63
2021/06/04 00:51:58;;;;;;;31.70;29.50;;;;;;;;;;5022038;28;20487;-63
2021/06/04 00:54:25;;;;;;;30.90;29.00;;;;;;;;;;5033741;28;20459;-62
2021/06/04 00:56:53;;;;;;;31.93;29.93;;;;;;;;;;5018365;28;20489;-63
2021/06/04 00:59:26;;;;;;;31.73;29.53;;;;;;;;;;5017939;28;20477;-62
2021/06/04 01:01:53;;;;;;;31.70;29.53;;;;;;;;;;5007364;28;20948;-63
2021/06/04 01:04:20;;;;;;;31.10;29.00;;;;;;;;;;4995687;28;20458;-64
2021/06/04 01:06:52;;;;;;;29.77;27.87;;;;;;;;;;5009314;28;20516;-64
2021/06/04 01:09:34;;;;;;;30.63;28.63;;;;;;;;;;5026585;28;20453;-63
2021/06/04 01:12:16;;;;;;;30.27;28.17;;;;;;;;;;5034801;28;20452;-64
2021/06/04 01:14:46;;;;;;;29.53;27.53;;;;;;;;;;5025266;28;20810;-63
2021/06/04 01:17:15;;;;;;;29.90;28.00;;;;;;;;;;5013963;28;20480;-64
2021/06/04 01:19:47;;;;;;;27.57;25.87;;;;;;;;;;5025411;28;20480;-64
2021/06/04 01:22:18;;;;;;;29.73;27.73;;;;;;;;;;5032860;28;21195;-64
2021/06/04 01:24:55;;;;;;;28.30;26.50;;;;;;;;;;5029627;28;20445;-70
2021/06/04 01:27:24;;;;;;;28.47;26.73;;;;;;;;;;5017137;28;20960;-65
2021/06/04 01:29:53;;;;;;;29.90;27.93;;;;;;;;;;5017777;28;20511;-64
2021/06/04 01:32:22;;;;;;;30.80;28.90;;;;;;;;;;5022292;28;20475;-62
2021/06/04 01:34:52;;;;;;;31.00;28.70;;;;;;;;;;5033929;28;20449;-64
2021/06/04 01:37:20;;;;;;;30.17;28.17;;;;;;;;;;5027880;28;21017;-65
2021/06/04 01:39:49;;;;;;;31.03;28.83;;;;;;;;;;5034230;28;20482;-66
2021/06/04 01:42:16;;;;;;;32.57;30.20;;;;;;;;;;5022774;28;20453;-64
2021/06/04 01:44:47;;;;;;;31.93;29.73;;;;;;;;;;5033092;28;20959;-64
2021/06/04 01:47:15;;;;;;;31.40;29.20;;;;;;;;;;5031130;28;20522;-65
2021/06/04 01:49:42;;;;;;;30.50;28.40;;;;;;;;;;5029585;28;20449;-64
2021/06/04 01:52:10;;;;;;;30.83;28.83;;;;;;;;;;5021302;28;20956;-64
2021/06/04 01:54:39;;;;;;;30.17;28.30;;;;;;;;;;5032304;28;20453;-63
2021/06/04 01:57:09;;;;;;;31.03;29.13;;;;;;;;;;5014651;28;20476;-63
2021/06/04 01:59:37;;;;;;;34.67;32.30;;;;;;;;;;5031373;28;20504;-63
2021/06/04 02:02:06;;;;;;;31.33;29.43;;;;;;;;;;5016979;28;20459;-65
2021/06/04 02:04:34;;;;;;;32.50;30.40;;;;;;;;;;5025010;28;20450;-63
2021/06/04 02:07:00;;;;;;;31.87;29.87;;;;;;;;;;5016554;28;20515;-65
2021/06/04 02:09:28;;;;;;;30.70;28.70;;;;;;;;;;5019364;28;20866;-65
2021/06/04 02:11:55;;;;;;;33.00;30.90;;;;;;;;;;5032968;28;20522;-64
2021/06/04 02:14:24;;;;;;;33.23;31.10;;;;;;;;;;5030729;28;20457;-64
2021/06/04 02:17:03;;;;;;;32.63;30.43;;;;;;;;;;5012612;28;20473;-64
2021/06/04 02:19:34;;;;;;;33.57;31.27;;;;;;;;;;5017661;28;21056;-64
2021/06/04 02:22:05;;;;;;;33.60;31.30;;;;;;;;;;5015578;28;21004;-65
2021/06/04 02:24:36;;;;;;;30.83;28.80;;;;;;;;;;5033732;28;20433;-65
2021/06/04 02:27:04;;;;;;;33.20;30.90;;;;;;;;;;5029216;28;20473;-65
2021/06/04 02:29:33;;;;;;;33.57;31.47;;;;;;;;;;5030391;28;20508;-65
2021/06/04 02:32:04;;;;;;;32.60;30.37;;;;;;;;;;5026263;28;20453;-69
2021/06/04 02:34:36;;;;;;;34.27;31.97;;;;;;;;;;5017906;28;20511;-65
2021/06/04 02:37:05;;;;;;;32.53;30.53;;;;;;;;;;5013235;28;20508;-66
2021/06/04 02:39:33;;;;;;;34.13;31.93;;;;;;;;;;5014470;28;20478;-69
2021/06/04 02:42:01;;;;;;;31.77;29.73;;;;;;;;;;5020871;28;20456;-67
2021/06/04 02:44:29;;;;;;;33.37;31.17;;;;;;;;;;5030966;28;20474;-65
2021/06/04 02:46:59;;;;;;;35.40;32.93;;;;;;;;;;5013457;28;20500;-66
2021/06/04 02:49:27;;;;;;;34.63;32.43;;;;;;;;;;5013424;28;20476;-65
2021/06/04 02:51:57;;;;;;;33.43;31.23;;;;;;;;;;5017647;28;20973;-64
2021/06/04 02:54:26;;;;;;;33.30;31.10;;;;;;;;;;5032794;28;20939;-66
2021/06/04 02:56:54;;;;;;;32.70;30.60;;;;;;;;;;5022548;28;20472;-65
2021/06/04 02:59:22;;;;;;;32.33;30.07;;;;;;;;;;5033003;28;20484;-66
2021/06/04 03:01:52;;;;;;;33.00;30.77;;;;;;;;;;5017112;28;20450;-66
2021/06/04 03:04:19;;;;;;;31.70;29.70;;;;;;;;;;5024406;28;20441;-65
2021/06/04 03:06:47;;;;;;;36.20;33.70;;;;;;;;;;5017742;28;20469;-66
2021/06/04 03:09:19;;;;;;;32.10;30.10;;;;;;;;;;5013697;28;20449;-65
2021/06/04 03:11:46;;;;;;;31.50;29.50;;;;;;;;;;5012371;28;20458;-65
2021/06/04 03:14:13;;;;;;;32.73;30.53;;;;;;;;;;5020821;28;20455;-65
2021/06/04 03:16:40;;;;;;;31.67;29.67;;;;;;;;;;5019127;28;20482;-64
2021/06/04 03:19:08;;;;;;;31.93;29.83;;;;;;;;;;5012791;28;20481;-65
2021/06/04 03:21:36;;;;;;;32.00;29.93;;;;;;;;;;5015461;28;20902;-64
2021/06/04 03:24:04;;;;;;;31.30;29.03;;;;;;;;;;5019586;28;20983;-67
2021/06/04 03:26:33;;;;;;;29.80;28.00;;;;;;;;;;5012560;28;20615;-65
2021/06/04 03:29:01;;;;;;;29.77;27.83;;;;;;;;;;5027982;22;20561;-66
2021/06/04 03:31:29;;;;;;;29.93;28.10;;;;;;;;;;4986906;28;20467;-66
2021/06/04 03:33:56;;;;;;;30.17;28.17;;;;;;;;;;4992536;28;20454;-67
2021/06/04 03:36:27;;;;;;;28.87;27.17;;;;;;;;;;4991981;28;20465;-68
2021/06/04 03:38:54;;;;;;;28.33;26.60;;;;;;;;;;4992132;28;20490;-68
2021/06/04 03:41:22;;;;;;;29.33;27.33;;;;;;;;;;4992607;28;20457;-66
2021/06/04 03:43:50;;;;;;;27.80;25.93;;;;;;;;;;4991930;28;20459;-66
2021/06/04 03:46:17;;;;;;;26.40;24.80;;;;;;;;;;4991455;28;20513;-65
2021/06/04 03:48:44;;;;;;;26.63;24.93;;;;;;;;;;4991754;28;20839;-65
2021/06/04 03:51:12;;;;;;;25.40;23.80;;;;;;;;;;4989537;28;20954;-66
2021/06/04 03:53:39;;;;;;;23.90;22.60;;;;;;;;;;4992454;28;20458;-66
2021/06/04 03:56:06;;;;;;;23.83;22.40;;;;;;;;;;4991412;28;20450;-65
2021/06/04 03:58:33;;;;;;;25.00;23.53;;;;;;;;;;4992410;28;20474;-67
2021/06/04 04:01:05;;;;;;;23.80;22.40;;;;;;;;;;4991930;28;20477;-66
2021/06/04 04:03:31;;;;;;;24.50;23.03;;;;;;;;;;4992448;28;20537;-67
2021/06/04 04:05:58;;;;;;;22.83;21.53;;;;;;;;;;4990851;28;20454;-67
2021/06/04 04:08:26;;;;;;;22.83;21.43;;;;;;;;;;4991899;28;20975;-65
2021/06/04 04:10:53;;;;;;;23.73;22.33;;;;;;;;;;4991602;28;20458;-68
2021/06/04 04:13:20;;;;;;;22.70;21.40;;;;;;;;;;4992060;28;20505;-67
2021/06/04 04:15:47;;;;;;;22.67;21.37;;;;;;;;;;4991657;28;20457;-66
2021/06/04 04:18:16;;;;;;;21.00;19.80;;;;;;;;;;5006680;28;20505;-65
2021/06/04 04:20:44;;;;;;;22.10;20.80;;;;;;;;;;4992233;28;20486;-67
2021/06/04 04:23:11;;;;;;;20.30;19.10;;;;;;;;;;4991728;28;20458;-65
2021/06/04 04:25:40;;;;;;;20.90;19.70;;;;;;;;;;4991061;28;21136;-68
2021/06/04 04:28:09;;;;;;;22.20;20.80;;;;;;;;;;4991034;28;20458;-66
2021/06/04 04:30:35;;;;;;;20.33;19.10;;;;;;;;;;4992024;28;20481;-67
2021/06/04 04:33:02;;;;;;;19.23;18.10;;;;;;;;;;4992062;28;20455;-67
2021/06/04 04:35:31;;;;;;;20.40;19.30;;;;;;;;;;4991924;28;20458;-66
2021/06/04 04:37:58;;;;;;;19.90;18.67;;;;;;;;;;4990821;28;20954;-67
2021/06/04 04:40:26;;;;;;;19.63;18.43;;;;;;;;;;4991467;28;20497;-67
2021/06/04 04:42:53;;;;;;;19.07;18.07;;;;;;;;;;4991811;28;20466;-67
2021/06/04 04:45:22;;;;;;;20.40;19.10;;;;;;;;;;4991711;28;20450;-67
2021/06/04 04:47:49;;;;;;;19.50;18.40;;;;;;;;;;4991625;28;20450;-67
2021/06/04 04:50:16;;;;;;;19.93;18.73;;;;;;;;;;4992414;28;20474;-67
2021/06/04 04:52:44;;;;;;;18.90;17.90;;;;;;;;;;4991167;28;20458;-66
2021/06/04 04:55:12;;;;;;;19.33;18.27;;;;;;;;;;4991767;28;20446;-67
2021/06/04 04:57:38;;;;;;;20.13;18.63;;;;;;;;;;4984560;28;20848;-67
2021/06/04 05:00:07;;;;;;;19.50;18.17;;;;;;;;;;4978506;28;20501;-66
2021/06/04 05:02:34;;;;;;;17.83;16.80;;;;;;;;;;4991937;28;20458;-67
2021/06/04 05:05:01;;;;;;;18.50;17.50;;;;;;;;;;4992136;28;20446;-66
2021/06/04 05:07:27;;;;;;;18.80;17.80;;;;;;;;;;4983703;28;20518;-66
2021/06/04 05:09:57;;;;;;;17.83;16.67;;;;;;;;;;4972511;28;20467;-67
2021/06/04 05:12:24;;;;;;;18.50;17.40;;;;;;;;;;4979047;28;20481;-67
2021/06/04 05:14:50;;;;;;;17.97;16.97;;;;;;;;;;4991671;28;20458;-65
2021/06/04 05:17:17;;;;;;;20.40;19.40;;;;;;;;;;4990545;28;20810;-65
2021/06/04 05:19:47;;;;;;;17.20;16.30;;;;;;;;;;4992201;28;20573;-67
2021/06/04 05:22:13;;;;;;;16.33;15.20;;;;;;;;;;4994734;28;20494;-67
2021/06/04 05:24:40;;;;;;;16.57;15.40;;;;;;;;;;4994943;28;20457;-65
2021/06/04 05:27:08;;;;;;;16.10;15.17;;;;;;;;;;4994786;28;20477;-65
2021/06/04 05:29:35;;;;;;;15.63;14.77;;;;;;;;;;4994626;28;21042;-66
2021/06/04 05:32:02;;;;;;;15.43;14.23;;;;;;;;;;4977051;28;20455;-64
2021/06/04 05:34:29;;;;;;;16.67;15.23;;;;;;;;;;4976037;28;20798;-65
2021/06/04 05:36:56;;;;;;;14.60;13.80;;;;;;;;;;4993537;28;20458;-66
2021/06/04 05:39:25;;;;;;;11.37;10.17;;;;;;;;;;4995231;28;20486;-65
2021/06/04 05:41:52;;;;;;;12.33;11.30;;;;;;;;;;4995175;28;20492;-66
2021/06/04 05:44:23;;;;;;;11.47;10.57;;;;;;;;;;4995053;28;20466;-67
2021/06/04 05:46:52;;;;;;;12.70;11.43;;;;;;;;;;4985520;28;20835;-66
2021/06/04 05:49:19;;;;;;;11.90;11.00;;;;;;;;;;4990853;28;20490;-66
2021/06/04 05:51:46;;;;;;;10.80;10.03;;;;;;;;;;4994308;28;20462;-66
2021/06/04 05:54:13;;;;;;;9.93;9.00;;;;;;;;;;4994811;28;20446;-67
2021/06/04 05:56:39;;;;;;;9.97;9.27;;;;;;;;;;4984262;28;20958;-66
2021/06/04 05:59:06;;;;;;;9.60;8.60;;;;;;;;;;4986754;28;20490;-66
2021/06/04 06:01:36;;;;;;;9.63;8.93;;;;;;;;;;4995043;28;20453;-68
2021/06/04 06:04:03;;;;;;;8.97;8.17;;;;;;;;;;4995415;28;20466;-66
2021/06/04 06:06:30;;;;;;;7.93;7.33;;;;;;;;;;4994305;28;20500;-66
2021/06/04 06:08:56;;;;;;;8.27;7.40;;;;;;;;;;4993855;28;21024;-66
2021/06/04 06:11:25;;;;;;;7.37;6.80;;;;;;;;;;4995119;28;20450;-66
2021/06/04 06:13:52;;;;;;;6.30;5.80;;;;;;;;;;4994187;28;20988;-67
2021/06/04 06:16:18;;;;;;;7.80;6.37;;;;;;;;;;4993357;28;20445;-66
2021/06/04 06:18:46;;;;;;;6.83;6.13;;;;;;;;;;4994303;28;20474;-68
2021/06/04 06:21:13;;;;;;;6.90;6.30;;;;;;;;;;4993974;28;20838;-67
2021/06/04 06:23:39;;;;;;;8.47;6.03;;;;;;;;;;4993250;28;20545;-68
2021/06/04 06:26:07;;;;;;;5.87;5.40;;;;;;;;;;4992829;28;20467;-67
2021/06/04 06:28:35;;;;;;;7.00;6.10;;;;;;;;;;4993259;28;20478;-68
2021/06/04 06:31:02;;;;;;;5.37;4.97;;;;;;;;;;4993960;28;20461;-66
2021/06/04 06:33:29;;;;;;;7.00;6.40;;;;;;;;;;4975008;28;20451;-66
2021/06/04 06:35:59;;;;;;;6.30;5.67;;;;;;;;;;4988921;28;20969;-66
2021/06/04 06:38:27;;;;;;;6.77;6.03;;;;;;;;;;4993150;28;20446;-66
2021/06/04 06:40:54;;;;;;;6.20;5.70;;;;;;;;;;4987997;28;20485;-66
2021/06/04 06:43:21;;;;;;;6.47;5.97;;;;;;;;;;4990877;28;20446;-68
2021/06/04 06:45:48;;;;;;;7.13;6.40;;;;;;;;;;4991769;28;20477;-69
2021/06/04 06:48:15;;;;;;;7.70;6.63;;;;;;;;;;4992534;28;20466;-66
2021/06/04 06:50:42;;;;;;;6.73;6.23;;;;;;;;;;4993959;28;20970;-65
2021/06/04 06:53:10;;;;;;;7.23;5.50;;;;;;;;;;4993128;28;20463;-66
2021/06/04 06:55:38;;;;;;;7.10;6.50;;;;;;;;;;4992349;28;20469;-65
2021/06/04 06:58:05;;;;;;;6.10;5.60;;;;;;;;;;4989845;28;21002;-66
2021/06/04 07:00:32;;;;;;;7.20;6.50;;;;;;;;;;4992582;28;20482;-64
2021/06/04 07:02:59;;;;;;;7.33;6.10;;;;;;;;;;4992646;28;20824;-66
2021/06/04 07:05:26;;;;;;;7.00;5.97;;;;;;;;;;4992342;28;20992;-68
2021/06/04 07:07:53;;;;;;;6.83;6.00;;;;;;;;;;4993074;28;20450;-68
2021/06/04 07:10:24;;;;;;;10.23;6.60;;;;;;;;;;4992363;28;20467;-67
2021/06/04 07:12:50;;;;;;;7.93;6.00;;;;;;;;;;4992006;28;20459;-67
2021/06/04 07:15:18;;;;;;;9.73;7.10;;;;;;;;;;4991356;28;20458;-65
2021/06/04 07:17:45;;;;;;;6.70;6.20;;;;;;;;;;4991843;28;20459;-68
2021/06/04 07:20:13;;;;;;;11.70;6.77;;;;;;;;;;4992583;28;21160;-69
2021/06/04 07:22:40;;;;;;;6.80;6.30;;;;;;;;;;4992867;28;20450;-64
2021/06/04 07:25:09;;;;;;;6.73;5.70;;;;;;;;;;4992279;28;20889;-67
2021/06/04 07:27:37;;;;;;;8.00;5.80;;;;;;;;;;4992179;28;20462;-64
2021/06/04 07:30:05;;;;;;;7.43;6.80;;;;;;;;;;4992019;28;20478;-67
2021/06/04 07:32:31;;;;;;;7.47;6.70;;;;;;;;;;4991986;28;20463;-64
2021/06/04 07:34:58;;;;;;;7.53;6.93;;;;;;;;;;4992553;28;20474;-67
2021/06/04 07:37:25;;;;;;;7.00;6.40;;;;;;;;;;4991739;28;20455;-67
2021/06/04 07:39:51;;;;;;;7.27;5.90;;;;;;;;;;4992224;28;20497;-67
2021/06/04 07:42:18;;;;;;;6.20;5.70;;;;;;;;;;4991588;28;20455;-66
2021/06/04 07:44:46;;;;;;;6.57;5.87;;;;;;;;;;4991664;28;20512;-67
2021/06/04 07:47:13;;;;;;;6.63;6.13;;;;;;;;;;4991796;28;20954;-67
2021/06/04 07:49:40;;;;;;;6.27;5.77;;;;;;;;;;4992481;28;20472;-67
2021/06/04 07:52:07;;;;;;;6.57;6.07;;;;;;;;;;4990753;28;20450;-67
2021/06/04 07:54:33;;;;;;;5.83;5.43;;;;;;;;;;4991624;28;20454;-68
2021/06/04 07:57:01;;;;;;;6.43;5.93;;;;;;;;;;4991292;28;20495;-67
2021/06/04 07:59:28;;;;;;;6.70;6.20;;;;;;;;;;4991015;28;20482;-68
2021/06/04 08:01:56;;;;;;;5.70;5.20;;;;;;;;;;4990291;28;20492;-67
2021/06/04 08:04:22;;;;;;;7.20;6.70;;;;;;;;;;4991903;28;20504;-67
2021/06/04 08:06:50;;;;;;;6.63;6.13;;;;;;;;;;4982004;28;20471;-67
2021/06/04 08:09:17;;;;;;;6.27;5.70;;;;;;;;;;4991395;28;20497;-67
2021/06/04 08:11:46;;;;;;;5.90;5.40;;;;;;;;;;4984344;28;20459;-69
2021/06/04 08:14:14;;;;;;;5.27;4.77;;;;;;;;;;4988428;28;20517;-67
2021/06/04 08:16:42;;;;;;;5.90;5.30;;;;;;;;;;4976432;28;20463;-67
2021/06/04 08:19:10;;;;;;;5.57;5.03;;;;;;;;;;4974244;28;20478;-68
2021/06/04 08:21:37;;;;;;;5.93;5.50;;;;;;;;;;4992486;28;20454;-67
2021/06/04 08:24:04;;;;;;;6.17;5.57;;;;;;;;;;4992076;28;20445;-69
2021/06/04 08:26:32;;;;;;;5.33;4.93;;;;;;;;;;4991519;28;20810;-66
2021/06/04 08:28:59;;;;;;;6.00;5.50;;;;;;;;;;4991271;28;20492;-66
2021/06/04 08:31:26;;;;;;;5.87;5.30;;;;;;;;;;4992215;28;20459;-65
2021/06/04 08:33:53;;;;;;;6.37;5.53;;;;;;;;;;4992047;28;20450;-65
2021/06/04 08:36:23;;;;;;;6.00;5.50;;;;;;;;;;4983427;28;20860;-66
2021/06/04 08:38:50;;;;;;;5.90;4.97;;;;;;;;;;4972435;28;20839;-65
2021/06/04 08:41:24;;;;;;;5.67;5.23;;;;;;;;;;4988136;28;20486;-66
2021/06/04 08:43:55;;;;;;;5.90;5.50;;;;;;;;;;4974286;28;20998;-66
2021/06/04 08:46:24;;;;;;;6.10;5.60;;;;;;;;;;4971459;28;20935;-65
2021/06/04 08:48:53;;;;;;;6.73;6.03;;;;;;;;;;4972681;28;20471;-65
2021/06/04 08:51:35;;;;;;;6.03;5.50;;;;;;;;;;4972199;28;20938;-65
2021/06/04 08:54:09;;;;;;;6.83;6.13;;;;;;;;;;4975357;28;20455;-65
2021/06/04 08:56:37;;;;;;;6.93;6.43;;;;;;;;;;4975409;28;20439;-65
2021/06/04 08:59:05;;;;;;;6.13;5.63;;;;;;;;;;4976172;28;20471;-65
2021/06/04 09:01:36;;;;;;;6.30;5.70;;;;;;;;;;4976210;28;20798;-65
2021/06/04 09:04:04;;;;;;;6.97;6.27;;;;;;;;;;4981268;28;20458;-65
2021/06/04 09:06:38;;;;;;;6.33;5.80;;;;;;;;;;4994884;28;20454;-65
2021/06/04 09:09:08;;;;;;;6.60;6.10;;;;;;;;;;4995399;28;20470;-65
2021/06/04 09:11:37;;;;;;;6.90;6.40;;;;;;;;;;4995711;28;20450;-65
2021/06/04 09:14:04;;;;;;;10.13;6.30;;;;;;;;;;4995461;28;20458;-64
2021/06/04 09:16:38;;;;;;;6.07;5.60;;;;;;;;;;4994082;28;20457;-63
2021/06/04 09:19:08;;;;;;;6.00;5.50;;;;;;;;;;4984582;28;20854;-67
2021/06/04 09:21:38;;;;;;;6.37;5.87;;;;;;;;;;4984103;28;20474;-67
2021/06/04 09:24:08;;;;;;;7.00;6.30;;;;;;;;;;4990405;28;20522;-68
2021/06/04 09:26:34;;;;;;;6.97;5.27;;;;;;;;;;4982419;28;20463;-68
2021/06/04 09:29:15;;;;;;;5.63;5.13;;;;;;;;;;4990243;28;20549;-68
2021/06/04 09:31:43;;;;;;;5.70;4.57;;;;;;;;;;4994445;28;20960;-69
2021/06/04 09:34:15;;;;;;;5.17;4.27;;;;;;;;;;5010401;22;20504;-67
2021/06/04 09:36:46;;;;;;;5.63;4.27;;;;;;;;;;5010703;28;20647;-66
2021/06/04 09:39:29;;;;;;;5.30;4.90;;;;;;;;;;5008818;28;20952;-66
2021/06/04 09:42:05;;;;;;;5.43;5.00;;;;;;;;;;5014264;28;20433;-67
2021/06/04 09:44:32;;;;;;;5.87;5.23;;;;;;;;;;4994508;28;20984;-70
2021/06/04 09:47:01;;;;;;;6.53;5.90;;;;;;;;;;4997525;28;21300;-70
2021/06/04 09:49:29;;;;;;;5.50;5.00;;;;;;;;;;4995311;28;20449;-70
2021/06/04 09:52:14;;;;;;;4.60;4.20;;;;;;;;;;4998250;28;20568;-70
2021/06/04 09:54:41;;;;;;;5.40;4.90;;;;;;;;;;5014490;28;20485;-72
2021/06/04 09:57:09;;;;;;;5.60;5.00;;;;;;;;;;5012984;28;20457;-70
2021/06/04 09:59:36;;;;;;;4.00;3.70;;;;;;;;;;5004646;28;20493;-70
2021/06/04 10:02:03;;;;;;;5.20;4.77;;;;;;;;;;5014370;28;20502;-71
2021/06/04 10:04:31;;;;;;;5.33;4.93;;;;;;;;;;5014010;28;20491;-70
2021/06/04 10:07:03;;;;;;;6.07;4.60;;;;;;;;;;4992965;28;20465;-70
2021/06/04 10:09:34;;;;;;;4.97;4.57;;;;;;;;;;4995384;28;20953;-70
2021/06/04 10:12:04;;;;;;;5.40;4.83;;;;;;;;;;5012120;28;20450;-70
2021/06/04 10:14:46;;;;;;;4.37;4.07;;;;;;;;;;5013879;28;20564;-73
2021/06/04 10:17:37;;;;;;;4.33;4.03;;;;;;;;;;4993519;28;20484;-70
2021/06/04 10:20:20;;;;;;;4.80;4.40;;;;;;;;;;4996341;28;20508;-70
2021/06/04 10:22:49;;;;;;;4.30;3.90;;;;;;;;;;4998864;28;20465;-73
2021/06/04 10:25:17;;;;;;;4.57;4.27;;;;;;;;;;4997755;28;20483;-79
2021/06/04 10:27:45;;;;;;;5.63;4.10;;;;;;;;;;5013834;28;20585;-70
2021/06/04 10:30:13;;;;;;;4.87;4.20;;;;;;;;;;5013994;28;20452;-70
2021/06/04 10:32:42;;;;;;;5.53;5.10;;;;;;;;;;5013882;28;20453;-70
2021/06/04 10:35:12;;;;;;;4.43;4.00;;;;;;;;;;5004656;28;20491;-81
2021/06/04 10:37:40;;;;;;;4.57;4.10;;;;;;;;;;5012880;28;20452;-70
2021/06/04 10:40:15;;;;;;;3.90;3.50;;;;;;;;;;5013894;28;20476;-70
2021/06/04 10:42:47;;;;;;;5.23;4.30;;;;;;;;;;5013569;28;20529;-72
2021/06/04 10:45:17;;;;;;;5.10;3.40;;;;;;;;;;4998293;28;20474;-74
2021/06/04 10:47:51;;;;;;;4.53;4.07;;;;;;;;;;4999272;28;20449;-72
2021/06/04 10:50:20;;;;;;;4.97;3.40;;;;;;;;;;5013841;28;20429;-74
2021/06/04 10:52:53;;;;;;;3.50;3.20;;;;;;;;;;5007861;28;20458;-70
2021/06/04 10:55:22;;;;;;;3.73;3.43;;;;;;;;;;5008870;28;20484;-72
2021/06/04 10:57:51;;;;;;;5.13;3.63;;;;;;;;;;5012871;28;20445;-70
2021/06/04 11:00:20;;;;;;;3.33;3.07;;;;;;;;;;5013682;28;20488;-73
2021/06/04 11:02:49;;;;;;;4.27;3.93;;;;;;;;;;5013144;28;20449;-71
2021/06/04 11:05:22;;;;;;;3.53;3.23;;;;;;;;;;5005691;28;20879;-74
2021/06/04 11:08:08;;;;;;;3.27;2.97;;;;;;;;;;5002259;28;20452;-71
2021/06/04 11:10:42;;;;;;;3.90;3.50;;;;;;;;;;5012761;28;20936;-70
2021/06/04 11:13:28;;;;;;;3.40;3.10;;;;;;;;;;5012289;28;20445;-74
2021/06/04 11:15:57;;;;;;;4.07;3.33;;;;;;;;;;5012581;28;20476;-70
2021/06/04 11:18:31;;;;;;;5.40;3.50;;;;;;;;;;5011357;28;20976;-70
2021/06/04 11:20:58;;;;;;;4.97;3.40;;;;;;;;;;5012488;28;21069;-69
2021/06/04 11:23:28;;;;;;;3.43;3.13;;;;;;;;;;4999912;28;20453;-70
2021/06/04 11:25:58;;;;;;;4.00;2.87;;;;;;;;;;4992866;28;20568;-70
2021/06/04 11:28:46;;;;;;;4.70;3.40;;;;;;;;;;5004818;28;20977;-70
2021/06/04 11:31:16;;;;;;;3.80;3.10;;;;;;;;;;5008043;28;20456;-71
2021/06/04 11:33:48;;;;;;;3.27;3.00;;;;;;;;;;5011332;28;20519;-70
2021/06/04 11:36:17;;;;;;;3.03;2.83;;;;;;;;;;4998475;28;20851;-70
2021/06/04 11:38:45;;;;;;;3.57;3.27;;;;;;;;;;5008707;28;20457;-70
2021/06/04 11:41:16;;;;;;;3.17;2.87;;;;;;;;;;5000014;28;20489;-70
2021/06/04 11:43:43;;;;;;;2.73;2.53;;;;;;;;;;5012585;28;20437;-70
2021/06/04 11:46:21;;;;;;;3.27;2.93;;;;;;;;;;5011482;28;20503;-70
2021/06/04 11:49:11;;;;;;;2.70;2.50;;;;;;;;;;4993221;28;20438;-70
2021/06/04 11:51:55;;;;;;;3.60;2.93;;;;;;;;;;4997152;28;20445;-71
2021/06/04 11:54:32;;;;;;;4.10;3.60;;;;;;;;;;4992368;28;20516;-70
2021/06/04 11:57:03;;;;;;;5.90;5.10;;;;;;;;;;4995424;28;20448;-75
2021/06/04 11:59:48;;;;;;;3.40;3.20;;;;;;;;;;4997396;28;20475;-72
2021/06/04 12:02:28;;;;;;;4.13;3.73;;;;;;;;;;5011189;28;20942;-69
2021/06/04 12:05:04;;;;;;;7.00;6.30;;;;;;;;;;5012397;28;20469;-69
2021/06/04 12:07:37;;;;;;;4.47;4.17;;;;;;;;;;5010344;28;20437;-70
2021/06/04 12:10:04;;;;;;;4.83;3.93;;;;;;;;;;5012152;28;20445;-71
2021/06/04 12:12:37;;;;;;;4.20;3.80;;;;;;;;;;5008526;28;20449;-70
2021/06/04 12:15:23;;;;;;;3.60;3.30;;;;;;;;;;4992508;28;20476;-70
2021/06/04 12:17:49;;;;;;;4.37;2.90;;;;;;;;;;4992026;28;20883;-73
2021/06/04 12:20:21;;;;;;;3.80;3.50;;;;;;;;;;5000361;28;20489;-70
2021/06/04 12:22:50;;;;;;;3.03;2.80;;;;;;;;;;4997566;28;20485;-70
2021/06/04 12:25:31;;;;;;;4.27;3.83;;;;;;;;;;5010246;28;20847;-70
2021/06/04 12:28:02;;;;;;;3.40;3.10;;;;;;;;;;4993470;28;20513;-70
2021/06/04 12:30:59;;;;;;;3.37;3.07;;;;;;;;;;4991748;28;20426;-70
2021/06/04 12:33:33;;;;;;;7.50;3.33;;;;;;;;;;4994399;28;20468;-71
2021/06/04 12:36:00;;;;;;;4.40;4.00;;;;;;;;;;5010254;28;20488;-70
2021/06/04 12:38:29;;;;;;;4.37;3.97;;;;;;;;;;4998324;28;20466;-70
2021/06/04 12:40:57;;;;;;;6.23;5.77;;;;;;;;;;5010592;28;20485;-71
2021/06/04 12:43:26;;;;;;;5.63;4.10;;;;;;;;;;5011288;28;20449;-70
2021/06/04 12:45:57;;;;;;;4.20;3.90;;;;;;;;;;5010167;28;20842;-71
2021/06/04 12:48:25;;;;;;;4.87;4.47;;;;;;;;;;5000197;28;20453;-72
2021/06/04 12:51:07;;;;;;;4.20;3.90;;;;;;;;;;5010808;28;20828;-70
2021/06/04 12:53:34;;;;;;;5.00;4.60;;;;;;;;;;5010959;28;20844;-70
2021/06/04 12:56:10;;;;;;;4.93;3.70;;;;;;;;;;5011941;28;20461;-70
2021/06/04 12:58:39;;;;;;;5.03;4.20;;;;;;;;;;5011212;28;20465;-70
2021/06/04 13:01:07;;;;;;;4.63;4.23;;;;;;;;;;5011346;28;20481;-70
2021/06/04 13:03:35;;;;;;;4.10;3.70;;;;;;;;;;5010601;28;20453;-69
2021/06/04 13:06:02;;;;;;;4.97;4.00;;;;;;;;;;5006862;28;20486;-70
2021/06/04 13:08:32;;;;;;;4.50;4.07;;;;;;;;;;5005445;28;20963;-70
2021/06/04 13:10:59;;;;;;;4.67;4.33;;;;;;;;;;5009241;28;20461;-70
2021/06/04 13:13:29;;;;;;;4.70;4.33;;;;;;;;;;5004760;28;21043;-70
2021/06/04 13:15:59;;;;;;;4.67;4.00;;;;;;;;;;4991727;28;20465;-70
2021/06/04 13:18:26;;;;;;;4.57;4.13;;;;;;;;;;5010773;28;20456;-70
2021/06/04 13:20:55;;;;;;;3.67;3.37;;;;;;;;;;5011125;28;20489;-73
2021/06/04 13:23:24;;;;;;;4.10;3.80;;;;;;;;;;5010779;28;21041;-70
2021/06/04 13:26:05;;;;;;;4.10;3.80;;;;;;;;;;5010135;28;20822;-70
2021/06/04 13:28:37;;;;;;;4.10;3.70;;;;;;;;;;5009950;28;20511;-70
2021/06/04 13:31:07;;;;;;;4.00;3.60;;;;;;;;;;5005946;28;20836;-71
2021/06/04 13:33:36;;;;;;;4.20;3.80;;;;;;;;;;5011232;28;20492;-70
2021/06/04 13:36:05;;;;;;;4.07;3.67;;;;;;;;;;5009957;28;20828;-70
2021/06/04 13:38:33;;;;;;;4.10;3.80;;;;;;;;;;5008867;28;20829;-70
2021/06/04 13:41:00;;;;;;;4.20;3.90;;;;;;;;;;5011838;28;20487;-72
2021/06/04 13:43:30;;;;;;;4.60;4.30;;;;;;;;;;5013597;28;20828;-70
2021/06/04 13:45:57;;;;;;;5.60;4.93;;;;;;;;;;5013664;28;20480;-70
2021/06/04 13:48:27;;;;;;;5.90;3.93;;;;;;;;;;5013143;28;20449;-70
2021/06/04 13:51:01;;;;;;;6.30;5.30;;;;;;;;;;5013382;28;20445;-71
2021/06/04 13:53:35;;;;;;;4.53;3.80;;;;;;;;;;5014352;28;20458;-71
2021/06/04 13:56:20;;;;;;;4.13;3.83;;;;;;;;;;5012202;28;20480;-72
2021/06/04 13:58:47;;;;;;;4.60;4.20;;;;;;;;;;5014144;28;20449;-70
2021/06/04 14:01:16;;;;;;;4.80;4.47;;;;;;;;;;5013458;28;20472;-71
2021/06/04 14:03:45;;;;;;;4.97;4.43;;;;;;;;;;5013515;28;20465;-70
2021/06/04 14:06:17;;;;;;;4.70;4.30;;;;;;;;;;5012207;28;20457;-72
2021/06/04 14:08:54;;;;;;;4.63;3.90;;;;;;;;;;5011611;28;20872;-70
2021/06/04 14:11:21;;;;;;;5.40;4.90;;;;;;;;;;5006505;28;20452;-69
2021/06/04 14:14:00;;;;;;;4.43;4.13;;;;;;;;;;5013316;28;20471;-70
2021/06/04 14:16:34;;;;;;;5.20;4.80;;;;;;;;;;5012941;28;20825;-71
2021/06/04 14:19:02;;;;;;;4.87;4.47;;;;;;;;;;5013150;28;20457;-73
2021/06/04 14:21:30;;;;;;;5.90;4.83;;;;;;;;;;5011681;28;20485;-72
2021/06/04 14:23:59;;;;;;;4.40;4.00;;;;;;;;;;5012877;28;20882;-70
2021/06/04 14:26:28;;;;;;;5.30;4.40;;;;;;;;;;5004183;28;20926;-69
2021/06/04 14:29:01;;;;;;;5.33;4.87;;;;;;;;;;5011628;28;20456;-71
2021/06/04 14:31:28;;;;;;;6.17;5.57;;;;;;;;;;5013288;28;20461;-70
2021/06/04 14:33:55;;;;;;;6.37;5.87;;;;;;;;;;5011394;28;20671;-70
2021/06/04 14:36:24;;;;;;;5.43;5.03;;;;;;;;;;5007946;28;20449;-70
2021/06/04 14:38:53;;;;;;;6.00;5.50;;;;;;;;;;5012262;28;20503;-71
2021/06/04 14:41:23;;;;;;;6.33;5.37;;;;;;;;;;5012150;28;20477;-73
2021/06/04 14:43:50;;;;;;;6.40;4.60;;;;;;;;;;5009170;28;20730;-70
2021/06/04 14:46:18;;;;;;;5.40;5.00;;;;;;;;;;5012013;28;20456;-69